sensor_id;sensor_type;location;lat;lon;timestamp;P1;durP1;ratioP1;P2;durP2;ratioP2
487;SDS011;16586;48.976;9.584;2022-08-19T00:00:49;1052.93;;;999.90;;
487;SDS011;16586;48.976;9.584;2022-08-19T00:03:16;1045.38;;;995.55;;
487;SDS011;16586;48.976;9.584;2022-08-19T00:05:43;1093.55;;;999.90;;
487;SDS011;16586;48.976;9.584;2022-08-19T00:08:10;1077.72;;;999.90;;
487;SDS011;16586;48.976;9.584;2022-08-19T00:10:37;1081.00;;;999.90;;
487;SDS011;16586;48.976;9.584;2022-08-19T00:13:06;1075.63;;;999.90;;
487;SDS011;16586;48.976;9.584;2022-08-19T00:15:33;1015.40;;;967.00;;
487;SDS011;16586;48.976;9.584;2022-08-19T00:18:00;1044.93;;;995.10;;
487;SDS011;16586;48.976;9.584;2022-08-19T00:20:27;1053.70;;;999.90;;
487;SDS011;16586;48.976;9.584;2022-08-19T00:22:54;1035.95;;;986.58;;
487;SDS011;16586;48.976;9.584;2022-08-19T00:25:21;1002.67;;;954.88;;
487;SDS011;16586;48.976;9.584;2022-08-19T00:27:48;992.50;;;945.20;;
487;SDS011;16586;48.976;9.584;2022-08-19T00:30:17;971.58;;;925.25;;
487;SDS011;16586;48.976;9.584;2022-08-19T00:32:44;858.45;;;817.55;;
487;SDS011;16586;48.976;9.584;2022-08-19T00:35:12;1012.60;;;964.30;;
487;SDS011;16586;48.976;9.584;2022-08-19T00:37:39;1019.05;;;970.47;;
487;SDS011;16586;48.976;9.584;2022-08-19T00:40:08;1021.80;;;973.10;;
487;SDS011;16586;48.976;9.584;2022-08-19T00:42:37;1011.57;;;963.37;;
487;SDS011;16586;48.976;9.584;2022-08-19T00:45:07;1051.22;;;999.80;;
487;SDS011;16586;48.976;9.584;2022-08-19T00:47:38;1068.30;;;999.90;;
487;SDS011;16586;48.976;9.584;2022-08-19T00:50:05;989.13;;;941.97;;
487;SDS011;16586;48.976;9.584;2022-08-19T00:52:36;1007.60;;;959.58;;
487;SDS011;16586;48.976;9.584;2022-08-19T00:55:10;1033.20;;;983.95;;
487;SDS011;16586;48.976;9.584;2022-08-19T00:57:42;1068.97;;;999.90;;
487;SDS011;16586;48.976;9.584;2022-08-19T01:00:13;1061.90;;;999.90;;
487;SDS011;16586;48.976;9.584;2022-08-19T01:02:44;965.70;;;919.67;;
487;SDS011;16586;48.976;9.584;2022-08-19T01:05:12;944.77;;;899.73;;
487;SDS011;16586;48.976;9.584;2022-08-19T01:07:43;962.38;;;916.50;;
487;SDS011;16586;48.976;9.584;2022-08-19T01:10:11;1000.55;;;952.85;;
487;SDS011;16586;48.976;9.584;2022-08-19T01:12:40;983.60;;;936.70;;
487;SDS011;16586;48.976;9.584;2022-08-19T01:15:09;1011.63;;;963.40;;
487;SDS011;16586;48.976;9.584;2022-08-19T01:17:38;1039.72;;;990.17;;
487;SDS011;16586;48.976;9.584;2022-08-19T01:20:07;1004.58;;;956.67;;
487;SDS011;16586;48.976;9.584;2022-08-19T01:22:39;952.40;;;907.03;;
487;SDS011;16586;48.976;9.584;2022-08-19T01:25:11;985.33;;;938.35;;
487;SDS011;16586;48.976;9.584;2022-08-19T01:27:41;1003.90;;;956.05;;
487;SDS011;16586;48.976;9.584;2022-08-19T01:30:11;958.50;;;912.80;;
487;SDS011;16586;48.976;9.584;2022-08-19T01:32:40;955.45;;;909.90;;
487;SDS011;16586;48.976;9.584;2022-08-19T01:35:08;869.72;;;828.25;;
487;SDS011;16586;48.976;9.584;2022-08-19T01:37:48;901.33;;;858.35;;
487;SDS011;16586;48.976;9.584;2022-08-19T01:40:17;929.03;;;884.73;;
487;SDS011;16586;48.976;9.584;2022-08-19T01:42:46;900.83;;;857.88;;
487;SDS011;16586;48.976;9.584;2022-08-19T01:45:14;857.63;;;816.72;;
487;SDS011;16586;48.976;9.584;2022-08-19T01:47:41;880.70;;;838.70;;
487;SDS011;16586;48.976;9.584;2022-08-19T01:50:09;901.28;;;858.30;;
487;SDS011;16586;48.976;9.584;2022-08-19T01:52:38;886.72;;;844.45;;
487;SDS011;16586;48.976;9.584;2022-08-19T01:55:09;918.78;;;874.95;;
487;SDS011;16586;48.976;9.584;2022-08-19T01:57:38;921.78;;;877.85;;
487;SDS011;16586;48.976;9.584;2022-08-19T02:00:08;922.75;;;878.75;;
487;SDS011;16586;48.976;9.584;2022-08-19T02:02:39;871.03;;;829.50;;
487;SDS011;16586;48.976;9.584;2022-08-19T02:05:06;918.95;;;875.15;;
487;SDS011;16586;48.976;9.584;2022-08-19T02:07:34;905.63;;;862.47;;
487;SDS011;16586;48.976;9.584;2022-08-19T02:10:02;893.40;;;850.80;;
487;SDS011;16586;48.976;9.584;2022-08-19T02:12:31;910.28;;;866.88;;
487;SDS011;16586;48.976;9.584;2022-08-19T02:14:58;917.28;;;873.58;;
487;SDS011;16586;48.976;9.584;2022-08-19T02:17:26;927.72;;;883.50;;
487;SDS011;16586;48.976;9.584;2022-08-19T02:19:53;922.70;;;878.70;;
487;SDS011;16586;48.976;9.584;2022-08-19T02:22:20;916.05;;;872.38;;
487;SDS011;16586;48.976;9.584;2022-08-19T02:24:47;925.58;;;881.47;;
487;SDS011;16586;48.976;9.584;2022-08-19T02:27:14;934.10;;;889.58;;
487;SDS011;16586;48.976;9.584;2022-08-19T02:29:43;922.30;;;878.35;;
487;SDS011;16586;48.976;9.584;2022-08-19T02:32:11;925.87;;;881.73;;
487;SDS011;16586;48.976;9.584;2022-08-19T02:34:38;922.95;;;878.95;;
487;SDS011;16586;48.976;9.584;2022-08-19T02:37:05;915.65;;;872.00;;
487;SDS011;16586;48.976;9.584;2022-08-19T02:39:53;935.15;;;890.55;;
487;SDS011;16586;48.976;9.584;2022-08-19T02:42:19;937.00;;;892.33;;
487;SDS011;16586;48.976;9.584;2022-08-19T02:44:47;897.25;;;854.47;;
487;SDS011;16586;48.976;9.584;2022-08-19T02:47:14;900.38;;;857.47;;
487;SDS011;16586;48.976;9.584;2022-08-19T02:49:41;869.53;;;828.05;;
487;SDS011;16586;48.976;9.584;2022-08-19T02:52:08;902.45;;;859.42;;
487;SDS011;16586;48.976;9.584;2022-08-19T02:54:36;884.77;;;842.60;;
487;SDS011;16586;48.976;9.584;2022-08-19T02:57:03;874.85;;;833.15;;
487;SDS011;16586;48.976;9.584;2022-08-19T02:59:30;933.17;;;888.67;;
487;SDS011;16586;48.976;9.584;2022-08-19T03:02:00;701.90;;;668.40;;
487;SDS011;16586;48.976;9.584;2022-08-19T03:04:26;715.55;;;681.42;;
487;SDS011;16586;48.976;9.584;2022-08-19T03:06:54;836.30;;;796.45;;
487;SDS011;16586;48.976;9.584;2022-08-19T03:09:22;897.63;;;854.83;;
487;SDS011;16586;48.976;9.584;2022-08-19T03:11:49;927.38;;;883.17;;
487;SDS011;16586;48.976;9.584;2022-08-19T03:14:16;918.70;;;874.90;;
487;SDS011;16586;48.976;9.584;2022-08-19T03:16:44;923.78;;;879.75;;
487;SDS011;16586;48.976;9.584;2022-08-19T03:19:15;907.75;;;864.45;;
487;SDS011;16586;48.976;9.584;2022-08-19T03:21:44;899.58;;;856.67;;
487;SDS011;16586;48.976;9.584;2022-08-19T03:24:11;827.75;;;788.28;;
487;SDS011;16586;48.976;9.584;2022-08-19T03:26:40;942.10;;;897.20;;
487;SDS011;16586;48.976;9.584;2022-08-19T03:29:08;948.67;;;903.45;;
487;SDS011;16586;48.976;9.584;2022-08-19T03:31:36;959.00;;;913.30;;
487;SDS011;16586;48.976;9.584;2022-08-19T03:34:04;939.10;;;894.30;;
487;SDS011;16586;48.976;9.584;2022-08-19T03:36:33;962.57;;;916.70;;
487;SDS011;16586;48.976;9.584;2022-08-19T03:39:00;958.53;;;912.83;;
487;SDS011;16586;48.976;9.584;2022-08-19T03:41:28;960.72;;;914.95;;
487;SDS011;16586;48.976;9.584;2022-08-19T03:43:56;950.40;;;905.10;;
487;SDS011;16586;48.976;9.584;2022-08-19T03:46:25;901.95;;;858.92;;
487;SDS011;16586;48.976;9.584;2022-08-19T03:48:54;960.03;;;914.25;;
487;SDS011;16586;48.976;9.584;2022-08-19T03:51:23;935.73;;;891.10;;
487;SDS011;16586;48.976;9.584;2022-08-19T03:53:53;949.03;;;903.78;;
487;SDS011;16586;48.976;9.584;2022-08-19T03:56:21;968.28;;;922.10;;
487;SDS011;16586;48.976;9.584;2022-08-19T03:58:50;984.70;;;937.78;;
487;SDS011;16586;48.976;9.584;2022-08-19T04:01:18;887.35;;;845.05;;
487;SDS011;16586;48.976;9.584;2022-08-19T04:03:46;973.72;;;927.30;;
487;SDS011;16586;48.976;9.584;2022-08-19T04:06:15;976.00;;;929.47;;
487;SDS011;16586;48.976;9.584;2022-08-19T04:08:46;968.70;;;922.53;;
487;SDS011;16586;48.976;9.584;2022-08-19T04:11:17;970.72;;;924.45;;
487;SDS011;16586;48.976;9.584;2022-08-19T04:13:47;953.10;;;907.67;;
487;SDS011;16586;48.976;9.584;2022-08-19T04:16:14;971.42;;;925.13;;
487;SDS011;16586;48.976;9.584;2022-08-19T04:18:42;955.80;;;910.20;;
487;SDS011;16586;48.976;9.584;2022-08-19T04:21:14;950.35;;;905.03;;
487;SDS011;16586;48.976;9.584;2022-08-19T04:23:42;975.47;;;928.97;;
487;SDS011;16586;48.976;9.584;2022-08-19T04:26:11;971.13;;;924.83;;
487;SDS011;16586;48.976;9.584;2022-08-19T04:28:42;944.35;;;899.33;;
487;SDS011;16586;48.976;9.584;2022-08-19T04:31:12;921.47;;;877.53;;
487;SDS011;16586;48.976;9.584;2022-08-19T04:33:40;929.20;;;884.90;;
487;SDS011;16586;48.976;9.584;2022-08-19T04:36:07;945.55;;;900.45;;
487;SDS011;16586;48.976;9.584;2022-08-19T04:38:42;941.70;;;896.80;;
487;SDS011;16586;48.976;9.584;2022-08-19T04:41:09;931.10;;;886.70;;
487;SDS011;16586;48.976;9.584;2022-08-19T04:43:54;932.95;;;888.47;;
487;SDS011;16586;48.976;9.584;2022-08-19T04:46:21;903.53;;;860.45;;
487;SDS011;16586;48.976;9.584;2022-08-19T04:48:48;930.40;;;886.05;;
487;SDS011;16586;48.976;9.584;2022-08-19T04:51:15;929.50;;;885.20;;
487;SDS011;16586;48.976;9.584;2022-08-19T04:53:42;954.30;;;908.80;;
487;SDS011;16586;48.976;9.584;2022-08-19T04:56:11;939.23;;;894.47;;
487;SDS011;16586;48.976;9.584;2022-08-19T04:58:39;944.10;;;899.10;;
487;SDS011;16586;48.976;9.584;2022-08-19T05:01:09;901.60;;;858.60;;
487;SDS011;16586;48.976;9.584;2022-08-19T05:03:38;801.30;;;763.10;;
487;SDS011;16586;48.976;9.584;2022-08-19T05:06:06;900.22;;;857.30;;
487;SDS011;16586;48.976;9.584;2022-08-19T05:08:35;927.75;;;883.50;;
487;SDS011;16586;48.976;9.584;2022-08-19T05:11:07;929.30;;;885.00;;
487;SDS011;16586;48.976;9.584;2022-08-19T05:13:36;943.60;;;898.63;;
487;SDS011;16586;48.976;9.584;2022-08-19T05:16:03;948.72;;;903.53;;
487;SDS011;16586;48.976;9.584;2022-08-19T05:18:32;990.70;;;943.50;;
487;SDS011;16586;48.976;9.584;2022-08-19T05:21:18;1011.17;;;962.97;;
487;SDS011;16586;48.976;9.584;2022-08-19T05:24:03;955.45;;;909.90;;
487;SDS011;16586;48.976;9.584;2022-08-19T05:26:33;905.42;;;862.22;;
487;SDS011;16586;48.976;9.584;2022-08-19T05:29:01;971.75;;;925.45;;
487;SDS011;16586;48.976;9.584;2022-08-19T05:31:28;1005.55;;;957.60;;
487;SDS011;16586;48.976;9.584;2022-08-19T05:33:57;1007.05;;;959.05;;
487;SDS011;16586;48.976;9.584;2022-08-19T05:36:24;997.35;;;949.80;;
487;SDS011;16586;48.976;9.584;2022-08-19T05:38:51;1021.83;;;973.13;;
487;SDS011;16586;48.976;9.584;2022-08-19T05:41:19;992.45;;;945.13;;
487;SDS011;16586;48.976;9.584;2022-08-19T05:43:54;980.25;;;933.53;;
487;SDS011;16586;48.976;9.584;2022-08-19T05:46:21;983.38;;;936.50;;
487;SDS011;16586;48.976;9.584;2022-08-19T05:48:48;986.17;;;939.17;;
487;SDS011;16586;48.976;9.584;2022-08-19T05:51:17;965.65;;;919.63;;
487;SDS011;16586;48.976;9.584;2022-08-19T05:53:44;965.83;;;919.78;;
487;SDS011;16586;48.976;9.584;2022-08-19T05:56:12;989.13;;;941.97;;
487;SDS011;16586;48.976;9.584;2022-08-19T05:58:41;921.85;;;877.90;;
487;SDS011;16586;48.976;9.584;2022-08-19T06:01:10;999.45;;;951.80;;
487;SDS011;16586;48.976;9.584;2022-08-19T06:03:39;979.78;;;933.08;;
487;SDS011;16586;48.976;9.584;2022-08-19T06:06:06;1035.23;;;985.90;;
487;SDS011;16586;48.976;9.584;2022-08-19T06:08:37;1032.40;;;983.20;;
487;SDS011;16586;48.976;9.584;2022-08-19T06:11:15;1014.83;;;966.42;;
487;SDS011;16586;48.976;9.584;2022-08-19T06:13:45;1010.53;;;962.35;;
487;SDS011;16586;48.976;9.584;2022-08-19T06:16:16;1037.93;;;988.42;;
487;SDS011;16586;48.976;9.584;2022-08-19T06:18:45;999.75;;;952.05;;
487;SDS011;16586;48.976;9.584;2022-08-19T06:21:13;1051.53;;;999.90;;
487;SDS011;16586;48.976;9.584;2022-08-19T06:23:41;1041.07;;;991.45;;
487;SDS011;16586;48.976;9.584;2022-08-19T06:26:10;891.72;;;849.22;;
487;SDS011;16586;48.976;9.584;2022-08-19T06:28:38;925.65;;;881.53;;
487;SDS011;16586;48.976;9.584;2022-08-19T06:31:07;894.47;;;851.85;;
487;SDS011;16586;48.976;9.584;2022-08-19T06:33:35;910.60;;;867.20;;
487;SDS011;16586;48.976;9.584;2022-08-19T06:36:02;849.20;;;808.72;;
487;SDS011;16586;48.976;9.584;2022-08-19T06:38:30;903.28;;;860.22;;
487;SDS011;16586;48.976;9.584;2022-08-19T06:41:01;900.93;;;857.97;;
487;SDS011;16586;48.976;9.584;2022-08-19T06:43:29;973.08;;;926.67;;
487;SDS011;16586;48.976;9.584;2022-08-19T06:45:56;897.30;;;854.50;;
487;SDS011;16586;48.976;9.584;2022-08-19T06:48:23;909.40;;;866.03;;
487;SDS011;16586;48.976;9.584;2022-08-19T06:50:50;1029.15;;;980.10;;
487;SDS011;16586;48.976;9.584;2022-08-19T06:53:17;892.03;;;849.50;;
487;SDS011;16586;48.976;9.584;2022-08-19T06:55:45;950.72;;;905.38;;
487;SDS011;16586;48.976;9.584;2022-08-19T06:58:13;927.38;;;883.17;;
487;SDS011;16586;48.976;9.584;2022-08-19T07:00:40;915.75;;;872.05;;
487;SDS011;16586;48.976;9.584;2022-08-19T07:03:07;929.60;;;885.27;;
487;SDS011;16586;48.976;9.584;2022-08-19T07:05:37;962.47;;;916.58;;
487;SDS011;16586;48.976;9.584;2022-08-19T07:08:05;921.00;;;877.10;;
487;SDS011;16586;48.976;9.584;2022-08-19T07:10:32;776.78;;;739.72;;
487;SDS011;16586;48.976;9.584;2022-08-19T07:13:00;802.03;;;763.80;;
487;SDS011;16586;48.976;9.584;2022-08-19T07:15:28;807.33;;;768.85;;
487;SDS011;16586;48.976;9.584;2022-08-19T07:17:55;815.35;;;776.47;;
487;SDS011;16586;48.976;9.584;2022-08-19T07:20:22;931.07;;;886.70;;
487;SDS011;16586;48.976;9.584;2022-08-19T07:22:49;909.63;;;866.22;;
487;SDS011;16586;48.976;9.584;2022-08-19T07:25:16;858.25;;;817.33;;
487;SDS011;16586;48.976;9.584;2022-08-19T07:27:45;892.30;;;849.75;;
487;SDS011;16586;48.976;9.584;2022-08-19T07:30:16;880.38;;;838.42;;
487;SDS011;16586;48.976;9.584;2022-08-19T07:32:44;905.90;;;862.70;;
487;SDS011;16586;48.976;9.584;2022-08-19T07:35:11;842.40;;;802.22;;
487;SDS011;16586;48.976;9.584;2022-08-19T07:37:38;787.13;;;749.63;;
487;SDS011;16586;48.976;9.584;2022-08-19T07:40:09;748.55;;;712.85;;
487;SDS011;16586;48.976;9.584;2022-08-19T07:42:36;789.00;;;751.40;;
487;SDS011;16586;48.976;9.584;2022-08-19T07:45:04;799.25;;;761.15;;
487;SDS011;16586;48.976;9.584;2022-08-19T07:47:32;802.27;;;764.00;;
487;SDS011;16586;48.976;9.584;2022-08-19T07:50:00;816.40;;;777.47;;
487;SDS011;16586;48.976;9.584;2022-08-19T07:52:29;942.73;;;897.80;;
487;SDS011;16586;48.976;9.584;2022-08-19T07:54:56;908.63;;;865.30;;
487;SDS011;16586;48.976;9.584;2022-08-19T07:57:25;922.67;;;878.67;;
487;SDS011;16586;48.976;9.584;2022-08-19T07:59:51;852.83;;;812.15;;
487;SDS011;16586;48.976;9.584;2022-08-19T08:02:19;924.60;;;880.50;;
487;SDS011;16586;48.976;9.584;2022-08-19T08:04:46;890.08;;;847.63;;
487;SDS011;16586;48.976;9.584;2022-08-19T08:07:32;925.63;;;881.53;;
487;SDS011;16586;48.976;9.584;2022-08-19T08:10:16;876.53;;;834.72;;
487;SDS011;16586;48.976;9.584;2022-08-19T08:12:43;825.72;;;786.38;;
487;SDS011;16586;48.976;9.584;2022-08-19T08:15:11;871.22;;;829.72;;
487;SDS011;16586;48.976;9.584;2022-08-19T08:17:43;877.67;;;835.83;;
487;SDS011;16586;48.976;9.584;2022-08-19T08:20:11;967.33;;;921.22;;
487;SDS011;16586;48.976;9.584;2022-08-19T08:22:43;975.37;;;928.87;;
487;SDS011;16586;48.976;9.584;2022-08-19T08:25:29;854.53;;;813.77;;
487;SDS011;16586;48.976;9.584;2022-08-19T08:27:56;926.28;;;882.13;;
487;SDS011;16586;48.976;9.584;2022-08-19T08:30:25;911.97;;;868.50;;
487;SDS011;16586;48.976;9.584;2022-08-19T08:32:53;877.63;;;835.78;;
487;SDS011;16586;48.976;9.584;2022-08-19T08:35:21;900.20;;;857.28;;
487;SDS011;16586;48.976;9.584;2022-08-19T08:37:52;892.92;;;850.35;;
487;SDS011;16586;48.976;9.584;2022-08-19T08:40:21;896.08;;;853.35;;
487;SDS011;16586;48.976;9.584;2022-08-19T08:42:54;811.28;;;772.60;;
487;SDS011;16586;48.976;9.584;2022-08-19T08:45:25;765.30;;;728.80;;
487;SDS011;16586;48.976;9.584;2022-08-19T08:47:55;773.92;;;737.03;;
487;SDS011;16586;48.976;9.584;2022-08-19T08:50:29;781.92;;;744.65;;
487;SDS011;16586;48.976;9.584;2022-08-19T08:53:02;818.80;;;779.72;;
487;SDS011;16586;48.976;9.584;2022-08-19T08:55:32;813.25;;;774.45;;
487;SDS011;16586;48.976;9.584;2022-08-19T08:58:01;839.17;;;799.15;;
487;SDS011;16586;48.976;9.584;2022-08-19T09:00:32;869.33;;;827.88;;
487;SDS011;16586;48.976;9.584;2022-08-19T09:03:00;906.97;;;863.72;;
487;SDS011;16586;48.976;9.584;2022-08-19T09:05:31;957.45;;;911.83;;
487;SDS011;16586;48.976;9.584;2022-08-19T09:08:15;943.17;;;898.20;;
487;SDS011;16586;48.976;9.584;2022-08-19T09:10:53;946.75;;;901.63;;
487;SDS011;16586;48.976;9.584;2022-08-19T09:13:23;963.75;;;917.80;;
487;SDS011;16586;48.976;9.584;2022-08-19T09:15:57;956.53;;;910.92;;
487;SDS011;16586;48.976;9.584;2022-08-19T09:18:36;956.55;;;910.95;;
487;SDS011;16586;48.976;9.584;2022-08-19T09:21:06;931.15;;;886.75;;
487;SDS011;16586;48.976;9.584;2022-08-19T09:23:35;920.05;;;876.17;;
487;SDS011;16586;48.976;9.584;2022-08-19T09:26:06;924.22;;;880.15;;
487;SDS011;16586;48.976;9.584;2022-08-19T09:28:33;829.30;;;789.80;;
487;SDS011;16586;48.976;9.584;2022-08-19T09:31:02;821.90;;;782.72;;
487;SDS011;16586;48.976;9.584;2022-08-19T09:33:29;945.47;;;900.38;;
487;SDS011;16586;48.976;9.584;2022-08-19T09:36:05;955.95;;;910.35;;
487;SDS011;16586;48.976;9.584;2022-08-19T09:38:35;899.08;;;856.20;;
487;SDS011;16586;48.976;9.584;2022-08-19T09:41:06;874.95;;;833.22;;
487;SDS011;16586;48.976;9.584;2022-08-19T09:43:37;911.13;;;867.70;;
487;SDS011;16586;48.976;9.584;2022-08-19T09:46:04;883.85;;;841.70;;
487;SDS011;16586;48.976;9.584;2022-08-19T09:48:34;789.80;;;752.15;;
487;SDS011;16586;48.976;9.584;2022-08-19T09:51:02;781.08;;;743.85;;
487;SDS011;16586;48.976;9.584;2022-08-19T09:53:30;773.85;;;736.95;;
487;SDS011;16586;48.976;9.584;2022-08-19T09:55:58;794.10;;;756.23;;
487;SDS011;16586;48.976;9.584;2022-08-19T09:58:25;873.10;;;831.47;;
487;SDS011;16586;48.976;9.584;2022-08-19T10:00:54;871.22;;;829.70;;
487;SDS011;16586;48.976;9.584;2022-08-19T10:03:21;883.95;;;841.83;;
487;SDS011;16586;48.976;9.584;2022-08-19T10:05:48;908.30;;;865.00;;
487;SDS011;16586;48.976;9.584;2022-08-19T10:08:15;833.03;;;793.33;;
487;SDS011;16586;48.976;9.584;2022-08-19T10:10:44;839.53;;;799.50;;
487;SDS011;16586;48.976;9.584;2022-08-19T10:13:14;829.50;;;789.95;;
487;SDS011;16586;48.976;9.584;2022-08-19T10:15:42;864.50;;;823.30;;
487;SDS011;16586;48.976;9.584;2022-08-19T10:18:09;884.80;;;842.63;;
487;SDS011;16586;48.976;9.584;2022-08-19T10:20:37;897.42;;;854.65;;
487;SDS011;16586;48.976;9.584;2022-08-19T10:23:06;924.03;;;879.97;;
487;SDS011;16586;48.976;9.584;2022-08-19T10:25:33;869.30;;;827.85;;
487;SDS011;16586;48.976;9.584;2022-08-19T10:28:00;842.72;;;802.55;;
487;SDS011;16586;48.976;9.584;2022-08-19T10:30:29;905.30;;;862.13;;
487;SDS011;16586;48.976;9.584;2022-08-19T10:32:56;907.33;;;864.05;;
487;SDS011;16586;48.976;9.584;2022-08-19T10:35:23;958.97;;;913.28;;
487;SDS011;16586;48.976;9.584;2022-08-19T10:37:51;933.22;;;888.75;;
487;SDS011;16586;48.976;9.584;2022-08-19T10:40:18;934.97;;;890.40;;
487;SDS011;16586;48.976;9.584;2022-08-19T10:42:45;944.03;;;899.03;;
487;SDS011;16586;48.976;9.584;2022-08-19T10:45:12;955.55;;;910.00;;
487;SDS011;16586;48.976;9.584;2022-08-19T10:47:40;952.95;;;907.50;;
487;SDS011;16586;48.976;9.584;2022-08-19T10:50:07;917.60;;;873.85;;
487;SDS011;16586;48.976;9.584;2022-08-19T10:52:52;923.95;;;879.92;;
487;SDS011;16586;48.976;9.584;2022-08-19T10:55:20;865.03;;;823.83;;
487;SDS011;16586;48.976;9.584;2022-08-19T10:58:09;865.25;;;824.00;;
487;SDS011;16586;48.976;9.584;2022-08-19T11:00:38;799.75;;;761.60;;
487;SDS011;16586;48.976;9.584;2022-08-19T11:03:07;826.25;;;786.85;;
487;SDS011;16586;48.976;9.584;2022-08-19T11:05:34;789.53;;;751.88;;
487;SDS011;16586;48.976;9.584;2022-08-19T11:08:02;793.78;;;755.92;;
487;SDS011;16586;48.976;9.584;2022-08-19T11:10:30;782.30;;;745.00;;
487;SDS011;16586;48.976;9.584;2022-08-19T11:12:57;818.47;;;779.47;;
487;SDS011;16586;48.976;9.584;2022-08-19T11:15:25;887.00;;;844.70;;
487;SDS011;16586;48.976;9.584;2022-08-19T11:17:53;918.25;;;874.45;;
487;SDS011;16586;48.976;9.584;2022-08-19T11:20:22;856.50;;;815.67;;
487;SDS011;16586;48.976;9.584;2022-08-19T11:22:50;891.85;;;849.35;;
487;SDS011;16586;48.976;9.584;2022-08-19T11:25:18;939.70;;;894.90;;
487;SDS011;16586;48.976;9.584;2022-08-19T11:27:45;943.03;;;898.08;;
487;SDS011;16586;48.976;9.584;2022-08-19T11:30:16;928.42;;;884.15;;
487;SDS011;16586;48.976;9.584;2022-08-19T11:32:43;833.07;;;793.33;;
487;SDS011;16586;48.976;9.584;2022-08-19T11:35:10;765.17;;;728.67;;
487;SDS011;16586;48.976;9.584;2022-08-19T11:37:38;796.60;;;758.60;;
487;SDS011;16586;48.976;9.584;2022-08-19T11:40:06;831.13;;;791.50;;
487;SDS011;16586;48.976;9.584;2022-08-19T11:42:34;861.00;;;819.92;;
487;SDS011;16586;48.976;9.584;2022-08-19T11:45:18;812.80;;;774.05;;
487;SDS011;16586;48.976;9.584;2022-08-19T11:47:45;768.50;;;731.85;;
487;SDS011;16586;48.976;9.584;2022-08-19T11:50:13;846.28;;;805.92;;
487;SDS011;16586;48.976;9.584;2022-08-19T11:52:41;784.15;;;746.75;;
487;SDS011;16586;48.976;9.584;2022-08-19T11:55:09;779.30;;;742.15;;
487;SDS011;16586;48.976;9.584;2022-08-19T11:57:37;804.72;;;766.33;;
487;SDS011;16586;48.976;9.584;2022-08-19T12:00:06;806.73;;;768.27;;
487;SDS011;16586;48.976;9.584;2022-08-19T12:02:34;827.08;;;787.65;;
487;SDS011;16586;48.976;9.584;2022-08-19T12:05:01;841.53;;;801.40;;
487;SDS011;16586;48.976;9.584;2022-08-19T12:07:28;761.17;;;724.87;;
487;SDS011;16586;48.976;9.584;2022-08-19T12:09:59;753.35;;;717.42;;
487;SDS011;16586;48.976;9.584;2022-08-19T12:12:27;767.70;;;731.10;;
487;SDS011;16586;48.976;9.584;2022-08-19T12:14:54;769.90;;;733.20;;
487;SDS011;16586;48.976;9.584;2022-08-19T12:17:23;740.80;;;705.50;;
487;SDS011;16586;48.976;9.584;2022-08-19T12:19:50;783.88;;;746.50;;
487;SDS011;16586;48.976;9.584;2022-08-19T12:22:17;824.90;;;785.60;;
487;SDS011;16586;48.976;9.584;2022-08-19T12:24:45;793.22;;;755.42;;
487;SDS011;16586;48.976;9.584;2022-08-19T12:27:14;960.50;;;914.70;;
487;SDS011;16586;48.976;9.584;2022-08-19T12:29:41;934.63;;;890.08;;
487;SDS011;16586;48.976;9.584;2022-08-19T12:32:08;847.53;;;807.13;;
487;SDS011;16586;48.976;9.584;2022-08-19T12:34:35;805.80;;;767.38;;
487;SDS011;16586;48.976;9.584;2022-08-19T12:37:04;948.93;;;903.73;;
487;SDS011;16586;48.976;9.584;2022-08-19T12:39:34;939.10;;;894.30;;
487;SDS011;16586;48.976;9.584;2022-08-19T12:42:02;936.28;;;891.65;;
487;SDS011;16586;48.976;9.584;2022-08-19T12:44:31;993.67;;;946.30;;
487;SDS011;16586;48.976;9.584;2022-08-19T12:46:58;986.13;;;939.13;;
487;SDS011;16586;48.976;9.584;2022-08-19T12:49:25;913.88;;;870.30;;
487;SDS011;16586;48.976;9.584;2022-08-19T12:51:54;1036.88;;;987.45;;
487;SDS011;16586;48.976;9.584;2022-08-19T12:54:22;923.35;;;879.35;;
487;SDS011;16586;48.976;9.584;2022-08-19T12:56:49;1008.33;;;960.25;;
487;SDS011;16586;48.976;9.584;2022-08-19T12:59:16;1000.78;;;953.08;;
487;SDS011;16586;48.976;9.584;2022-08-19T13:01:45;860.88;;;819.85;;
487;SDS011;16586;48.976;9.584;2022-08-19T13:04:12;855.90;;;815.08;;
487;SDS011;16586;48.976;9.584;2022-08-19T13:06:39;965.85;;;919.80;;
487;SDS011;16586;48.976;9.584;2022-08-19T13:09:06;999.80;;;952.13;;
487;SDS011;16586;48.976;9.584;2022-08-19T13:11:34;1009.47;;;961.38;;
487;SDS011;16586;48.976;9.584;2022-08-19T13:14:02;872.90;;;831.30;;
487;SDS011;16586;48.976;9.584;2022-08-19T13:16:30;1004.88;;;956.97;;
487;SDS011;16586;48.976;9.584;2022-08-19T13:18:59;983.85;;;936.95;;
487;SDS011;16586;48.976;9.584;2022-08-19T13:21:27;828.70;;;789.20;;
487;SDS011;16586;48.976;9.584;2022-08-19T13:23:56;744.83;;;709.33;;
487;SDS011;16586;48.976;9.584;2022-08-19T13:26:23;779.20;;;742.03;;
487;SDS011;16586;48.976;9.584;2022-08-19T13:28:50;977.80;;;931.20;;
487;SDS011;16586;48.976;9.584;2022-08-19T13:31:35;990.20;;;943.00;;
487;SDS011;16586;48.976;9.584;2022-08-19T13:34:27;915.55;;;871.90;;
487;SDS011;16586;48.976;9.584;2022-08-19T13:36:56;959.22;;;913.50;;
487;SDS011;16586;48.976;9.584;2022-08-19T13:39:23;979.83;;;933.13;;
487;SDS011;16586;48.976;9.584;2022-08-19T13:41:50;995.60;;;948.15;;
487;SDS011;16586;48.976;9.584;2022-08-19T13:44:17;992.97;;;945.65;;
487;SDS011;16586;48.976;9.584;2022-08-19T13:46:45;1028.50;;;979.50;;
487;SDS011;16586;48.976;9.584;2022-08-19T13:49:13;921.75;;;877.83;;
487;SDS011;16586;48.976;9.584;2022-08-19T13:51:42;1047.93;;;997.97;;
487;SDS011;16586;48.976;9.584;2022-08-19T13:54:10;998.45;;;950.85;;
487;SDS011;16586;48.976;9.584;2022-08-19T13:56:39;1019.05;;;970.45;;
487;SDS011;16586;48.976;9.584;2022-08-19T13:59:07;1052.95;;;999.90;;
487;SDS011;16586;48.976;9.584;2022-08-19T14:01:34;1036.35;;;986.92;;
487;SDS011;16586;48.976;9.584;2022-08-19T14:04:01;1015.60;;;967.17;;
487;SDS011;16586;48.976;9.584;2022-08-19T14:06:29;1035.88;;;986.50;;
487;SDS011;16586;48.976;9.584;2022-08-19T14:08:57;1012.00;;;963.75;;
487;SDS011;16586;48.976;9.584;2022-08-19T14:11:24;1039.22;;;989.70;;
487;SDS011;16586;48.976;9.584;2022-08-19T14:13:52;940.20;;;895.35;;
487;SDS011;16586;48.976;9.584;2022-08-19T14:16:19;1041.50;;;991.87;;
487;SDS011;16586;48.976;9.584;2022-08-19T14:18:47;1041.13;;;991.50;;
487;SDS011;16586;48.976;9.584;2022-08-19T14:21:14;1006.05;;;958.10;;
487;SDS011;16586;48.976;9.584;2022-08-19T14:23:42;918.05;;;874.25;;
487;SDS011;16586;48.976;9.584;2022-08-19T14:26:13;879.97;;;838.03;;
487;SDS011;16586;48.976;9.584;2022-08-19T14:28:41;894.92;;;852.22;;